createdAt,value
2023-03-12T00:00:50.272Z,99624.75
2023-03-12T00:03:50.318Z,99653.16
2023-03-12T00:06:50.262Z,99636.00
2023-03-12T00:09:52.251Z,99649.59
2023-03-12T00:12:52.311Z,99653.78
2023-03-12T00:15:53.311Z,99663.19
2023-03-12T00:18:53.306Z,99682.66
2023-03-12T00:21:53.249Z,99686.31
2023-03-12T00:24:53.312Z,99694.97
2023-03-12T00:27:53.298Z,99679.06
2023-03-12T00:30:55.334Z,99695.13
2023-03-12T00:33:49.280Z,99685.22
2023-03-12T00:36:38.239Z,99699.88
2023-03-12T00:39:38.260Z,99706.03
2023-03-12T00:42:38.271Z,99720.84
2023-03-12T00:45:38.293Z,99705.84
2023-03-12T00:48:38.262Z,99716.78
2023-03-12T00:51:38.272Z,99718.00
2023-03-12T00:54:38.279Z,99724.34
2023-03-12T00:57:38.268Z,99719.94
2023-03-12T01:00:38.265Z,99725.19
2023-03-12T01:03:38.409Z,99723.38
2023-03-12T01:06:38.257Z,99731.47
2023-03-12T01:09:38.298Z,99738.62
2023-03-12T01:12:38.259Z,99744.25
2023-03-12T01:15:38.244Z,99738.59
2023-03-12T01:18:38.298Z,99747.50
2023-03-12T01:21:38.284Z,99745.97
2023-03-12T01:24:38.269Z,99721.31
2023-03-12T01:27:38.252Z,99733.50
2023-03-12T01:30:38.268Z,99755.50
2023-03-12T01:33:38.284Z,99762.72
2023-03-12T01:36:41.299Z,99762.44
2023-03-12T01:39:41.251Z,99774.53
2023-03-12T01:42:41.298Z,99773.22
2023-03-12T01:46:15.384Z,99749.87
2023-03-12T01:49:25.262Z,99768.66
2023-03-12T01:52:42.276Z,99776.06
2023-03-12T01:55:42.293Z,99781.63
2023-03-12T01:58:42.276Z,99768.53
2023-03-12T02:01:42.260Z,99791.53
2023-03-12T02:04:42.231Z,99786.66
2023-03-12T02:07:42.298Z,99785.91
2023-03-12T02:10:42.287Z,99774.66
2023-03-12T02:13:42.276Z,99795.25
2023-03-12T02:16:42.282Z,99779.72
2023-03-12T02:20:01.262Z,99801.91
2023-03-12T02:23:16.270Z,99801.16
2023-03-12T02:26:18.233Z,99808.69
2023-03-12T02:29:18.290Z,99809.50
2023-03-12T02:32:19.335Z,99790.44
2023-03-12T02:35:20.293Z,99807.72
2023-03-12T02:38:40.263Z,99823.91
2023-03-12T02:41:43.282Z,99829.69
2023-03-12T02:44:47.238Z,99836.69
2023-03-12T02:47:47.242Z,99835.31
2023-03-12T02:50:47.277Z,99843.09
2023-03-12T02:53:47.272Z,99845.88
2023-03-12T02:56:47.239Z,99846.66
2023-03-12T02:59:47.240Z,99816.56
2023-03-12T03:02:47.248Z,99856.22
2023-03-12T03:05:47.273Z,99850.19
2023-03-12T03:08:47.281Z,99853.66
2023-03-12T03:11:47.245Z,99865.03
2023-03-12T03:14:47.285Z,99857.00
2023-03-12T03:17:47.231Z,99862.59
2023-03-12T03:20:47.288Z,99860.91
2023-03-12T03:23:48.262Z,99863.56
2023-03-12T03:26:48.287Z,99869.81
2023-03-12T03:32:49.316Z,99887.16
2023-03-12T03:35:49.302Z,99893.16
2023-03-12T03:38:49.259Z,99890.84
2023-03-12T03:41:49.275Z,99894.69
2023-03-12T03:44:50.266Z,99896.66
2023-03-12T03:47:50.277Z,99898.31
2023-03-12T03:50:51.228Z,99897.62
2023-03-12T03:53:51.261Z,99913.03
2023-03-12T03:56:51.229Z,99909.81
2023-03-12T03:59:51.243Z,99879.72
2023-03-12T04:02:51.237Z,99910.00
2023-03-12T04:05:52.301Z,99915.16
2023-03-12T04:08:52.379Z,99893.09
2023-03-12T04:11:52.299Z,99907.38
2023-03-12T04:14:49.259Z,99914.91
2023-03-12T04:17:49.268Z,99915.88
2023-03-12T04:20:49.231Z,99921.81
2023-03-12T04:23:50.222Z,99920.53
2023-03-12T04:26:50.240Z,99897.84
2023-03-12T04:29:50.271Z,99912.25
2023-03-12T04:32:50.261Z,99945.44
2023-03-12T04:35:50.270Z,99960.00
2023-03-12T04:38:50.236Z,99960.16
2023-03-12T04:41:52.231Z,99976.50
2023-03-12T04:44:52.256Z,99972.34
2023-03-12T04:47:52.276Z,99977.41
2023-03-12T04:50:52.245Z,99989.69
2023-03-12T04:53:52.265Z,99993.19
2023-03-12T04:56:52.216Z,99995.94
2023-03-12T04:59:52.268Z,99997.72
2023-03-12T05:02:53.307Z,100006.19
2023-03-12T05:05:53.283Z,100019.44
2023-03-12T05:08:53.254Z,100028.31
2023-03-12T05:11:46.239Z,100025.75
2023-03-12T05:14:33.260Z,100039.22
2023-03-12T05:17:34.286Z,100018.22
2023-03-12T05:20:35.248Z,100048.16
2023-03-12T05:23:36.288Z,100065.34
2023-03-12T05:26:42.307Z,100071.94
2023-03-12T05:29:42.283Z,100070.09
2023-03-12T05:32:42.324Z,100075.09
2023-03-12T05:35:42.250Z,100078.38
2023-03-12T05:38:42.231Z,100085.19
2023-03-12T05:41:43.259Z,100057.09
2023-03-12T05:44:43.267Z,100096.41
2023-03-12T05:47:43.237Z,100103.88
2023-03-12T05:50:44.240Z,100110.22
2023-03-12T05:53:44.230Z,100111.25
2023-03-12T05:56:44.280Z,100106.25
2023-03-12T05:59:46.265Z,100132.31
2023-03-12T06:02:46.278Z,100130.34
2023-03-12T06:05:49.221Z,100133.56
2023-03-12T06:08:49.220Z,100146.41
2023-03-12T06:11:49.260Z,100143.22
2023-03-12T06:14:49.211Z,100140.81
2023-03-12T06:17:49.240Z,100163.34
2023-03-12T06:20:49.197Z,100157.94
2023-03-12T06:23:49.260Z,100163.06
2023-03-12T06:26:49.220Z,100166.88
2023-03-12T06:29:49.236Z,100176.03
2023-03-12T06:32:49.243Z,100186.41
2023-03-12T06:35:49.293Z,100168.69
2023-03-12T06:38:49.237Z,100191.59
2023-03-12T06:41:49.244Z,100197.53
2023-03-12T06:44:49.210Z,100195.47
2023-03-12T06:47:49.222Z,100193.34
2023-03-12T06:50:49.221Z,100198.28
2023-03-12T06:53:49.198Z,100200.53
2023-03-12T06:56:49.223Z,100209.13
2023-03-12T06:59:50.619Z,100221.62
2023-03-12T07:02:50.237Z,100229.47
2023-03-12T07:05:50.247Z,100229.72
2023-03-12T07:08:50.263Z,100232.63
2023-03-12T07:11:50.240Z,100235.94
2023-03-12T07:14:50.238Z,100240.69
2023-03-12T07:17:50.213Z,100241.72
2023-03-12T07:20:51.245Z,100256.75
2023-03-12T07:23:51.253Z,100225.16
2023-03-12T07:26:51.259Z,100250.78
2023-03-12T07:29:51.262Z,100260.16
2023-03-12T07:32:51.217Z,100254.28
2023-03-12T07:35:52.332Z,100264.31
2023-03-12T07:38:52.199Z,100265.97
2023-03-12T07:41:52.307Z,100259.06
2023-03-12T07:44:52.788Z,100261.75
2023-03-12T07:47:52.329Z,100270.25
2023-03-12T07:50:52.300Z,100264.28
2023-03-12T07:53:52.270Z,100285.59
2023-03-12T07:56:52.464Z,100281.34
2023-03-12T07:59:53.305Z,100272.78
2023-03-12T08:02:53.410Z,100280.56
2023-03-12T08:05:53.265Z,100277.25
2023-03-12T08:08:53.260Z,100277.66
2023-03-12T08:11:53.393Z,100273.41
2023-03-12T08:14:53.285Z,100279.69
2023-03-12T08:17:53.218Z,100284.47
2023-03-12T08:20:53.257Z,100286.69
2023-03-12T08:23:53.215Z,100294.25
2023-03-12T08:26:53.259Z,100301.25
2023-03-12T08:29:54.251Z,100300.34
2023-03-12T08:32:54.323Z,100309.31
2023-03-12T08:35:54.298Z,100304.22
2023-03-12T08:38:54.245Z,100311.03
2023-03-12T08:41:54.208Z,100306.56
2023-03-12T08:44:54.328Z,100317.63
2023-03-12T08:47:48.225Z,100312.78
2023-03-12T08:50:29.371Z,100319.59
2023-03-12T08:53:16.234Z,100312.94
2023-03-12T08:55:55.309Z,100304.53
2023-03-12T08:58:42.255Z,100323.22
2023-03-12T09:01:43.845Z,100279.78
2023-03-12T09:04:43.492Z,100320.56
2023-03-12T09:07:44.257Z,100321.00
2023-03-12T09:10:44.215Z,100327.94
2023-03-12T09:14:22.262Z,100320.00
2023-03-12T09:17:04.257Z,100315.53
2023-03-12T09:20:04.276Z,100322.19
2023-03-12T09:23:05.653Z,100327.19
2023-03-12T09:26:06.218Z,100307.94
2023-03-12T09:29:06.222Z,100326.06
2023-03-12T09:32:06.233Z,100334.00
2023-03-12T09:35:06.233Z,100340.50
2023-03-12T09:38:06.251Z,100328.13
2023-03-12T09:41:06.257Z,100332.88
2023-03-12T09:44:11.239Z,100342.72
2023-03-12T09:47:14.221Z,100339.63
2023-03-12T09:50:22.240Z,100330.25
2023-03-12T09:53:38.220Z,100343.78
2023-03-12T09:56:40.232Z,100339.13
2023-03-12T09:59:40.392Z,100340.66
2023-03-12T10:02:59.263Z,100342.75
2023-03-12T10:06:17.326Z,100339.56
2023-03-12T10:09:37.217Z,100347.50
2023-03-12T10:13:01.275Z,100321.47
2023-03-12T10:16:19.332Z,100339.13
2023-03-12T10:19:37.229Z,100343.50
2023-03-12T10:23:14.302Z,100336.19
2023-03-12T10:26:21.257Z,100341.47
2023-03-12T10:29:28.251Z,100315.91
2023-03-12T10:32:33.266Z,100329.66
2023-03-12T10:35:37.252Z,100328.44
2023-03-12T10:38:43.247Z,100338.84
2023-03-12T10:41:45.222Z,100330.78
2023-03-12T10:44:45.278Z,100332.69
2023-03-12T10:47:50.212Z,100293.72
2023-03-12T10:50:51.253Z,100326.88
2023-03-12T10:54:00.252Z,100326.84
2023-03-12T10:57:04.239Z,100318.41
2023-03-12T11:00:04.220Z,100325.47
2023-03-12T11:03:10.238Z,100299.16
2023-03-12T11:06:13.270Z,100329.47
2023-03-12T11:09:33.269Z,100303.09
2023-03-12T11:12:42.275Z,100317.53
2023-03-12T11:15:44.287Z,100329.00
2023-03-12T11:18:49.274Z,100327.03
2023-03-12T11:21:50.284Z,100319.72
2023-03-12T11:24:50.237Z,100306.41
2023-03-12T11:27:52.250Z,100307.53
2023-03-12T11:30:45.261Z,100305.75
2023-03-12T11:33:45.212Z,100307.66
2023-03-12T11:36:52.286Z,100302.34
2023-03-12T11:40:17.295Z,100310.41
2023-03-12T11:43:43.333Z,100302.72
2023-03-12T11:47:03.267Z,100299.31
2023-03-12T11:50:41.302Z,100296.22
2023-03-12T11:53:50.267Z,100304.75
2023-03-12T11:56:53.264Z,100298.91
2023-03-12T11:59:53.222Z,100308.19
2023-03-12T12:03:11.274Z,100298.53
2023-03-12T12:06:46.940Z,100302.28
2023-03-12T12:09:58.254Z,100300.78
2023-03-12T12:13:24.310Z,100293.53
2023-03-12T12:16:55.296Z,100297.03
2023-03-12T12:20:30.322Z,100295.00
2023-03-12T12:23:32.288Z,100293.97
2023-03-12T12:26:51.271Z,100299.22
2023-03-12T12:30:21.296Z,100294.25
2023-03-12T12:33:39.306Z,100301.81
2023-03-12T12:36:43.219Z,100300.94
2023-03-12T12:39:47.112Z,100269.47
2023-03-12T12:42:49.296Z,100304.00
2023-03-12T12:45:53.300Z,100303.41
2023-03-12T12:49:25.294Z,100294.63
2023-03-12T12:52:33.294Z,100312.94
2023-03-12T12:55:32.290Z,100316.06
2023-03-12T12:58:19.330Z,100318.37
2023-03-12T13:01:19.344Z,100329.75
2023-03-12T13:04:24.305Z,100324.69
2023-03-12T13:07:28.110Z,100318.19
2023-03-12T13:10:57.590Z,100334.72
2023-03-12T13:14:28.302Z,100330.97
2023-03-12T13:17:44.298Z,100330.22
2023-03-12T13:21:06.303Z,100328.94
2023-03-12T13:24:38.259Z,100325.44
2023-03-12T13:27:43.326Z,100324.94
2023-03-12T13:30:48.407Z,100322.34
2023-03-12T13:34:01.313Z,100329.78
2023-03-12T13:37:04.249Z,100334.53
2023-03-12T13:40:04.266Z,100327.81
2023-03-12T13:43:15.309Z,100329.00
2023-03-12T13:46:19.441Z,100325.19
2023-03-12T13:49:24.280Z,100328.19
2023-03-12T13:52:44.308Z,100331.94
2023-03-12T13:55:47.291Z,100328.56
2023-03-12T13:58:55.304Z,100332.94
2023-03-12T14:01:57.310Z,100333.88
2023-03-12T14:04:58.193Z,100328.41
2023-03-12T14:08:17.268Z,100320.44
2023-03-12T14:11:37.314Z,100336.31
2023-03-12T14:14:56.269Z,100343.13
2023-03-12T14:17:57.277Z,100346.63
2023-03-12T14:21:06.307Z,100348.91
2023-03-12T14:24:11.311Z,100325.50
2023-03-12T14:27:11.307Z,100343.97
2023-03-12T14:30:15.309Z,100341.00
2023-03-12T14:33:16.276Z,100347.62
2023-03-12T14:37:12.317Z,100347.97
2023-03-12T14:40:15.302Z,100348.09
2023-03-12T14:43:15.309Z,100346.84
2023-03-12T14:46:20.291Z,100349.37
2023-03-12T14:49:20.306Z,100322.34
2023-03-12T14:52:20.296Z,100340.72
2023-03-12T14:55:45.284Z,100343.28
2023-03-12T14:58:47.247Z,100338.16
2023-03-12T15:01:48.316Z,100334.66
2023-03-12T15:04:48.333Z,100343.09
2023-03-12T15:07:50.248Z,100345.47
2023-03-12T15:10:50.314Z,100348.81
2023-03-12T15:13:51.309Z,100353.53
2023-03-12T15:16:51.273Z,100358.97
2023-03-12T15:19:52.275Z,100361.84
2023-03-12T15:22:52.312Z,100345.47
2023-03-12T15:25:52.300Z,100358.91
2023-03-12T15:28:53.308Z,100356.56
2023-03-12T15:31:57.336Z,100354.97
2023-03-12T15:34:59.161Z,100360.50
2023-03-12T15:38:04.261Z,100363.19
2023-03-12T15:41:05.254Z,100361.78
2023-03-12T15:44:09.295Z,100366.56
2023-03-12T15:47:26.298Z,100365.78
2023-03-12T15:50:32.255Z,100365.94
2023-03-12T15:53:35.273Z,100372.94
2023-03-12T15:56:36.283Z,100373.97
2023-03-12T15:59:40.299Z,100384.53
2023-03-12T16:02:51.304Z,100381.47
2023-03-12T16:05:53.256Z,100390.13
2023-03-12T16:08:58.277Z,100367.44
2023-03-12T16:11:58.294Z,100374.47
2023-03-12T16:14:58.323Z,100392.00
2023-03-12T16:17:58.284Z,100387.97
2023-03-12T16:20:58.216Z,100363.91
2023-03-12T16:23:58.292Z,100392.03
2023-03-12T16:27:07.305Z,100391.34
2023-03-12T16:30:07.266Z,100391.12
2023-03-12T16:33:09.128Z,100392.47
2023-03-12T16:36:09.358Z,100395.53
2023-03-12T16:39:09.254Z,100406.25
2023-03-12T16:42:09.276Z,100412.03
2023-03-12T16:45:09.265Z,100402.53
2023-03-12T16:48:13.296Z,100422.03
2023-03-12T16:51:13.278Z,100420.84
2023-03-12T16:54:14.294Z,100429.12
2023-03-12T16:57:07.254Z,100429.31
2023-03-12T16:59:53.302Z,100437.56
2023-03-12T17:02:53.289Z,100437.84
2023-03-12T17:05:53.252Z,100417.38
2023-03-12T17:08:53.299Z,100450.75
2023-03-12T17:11:53.260Z,100451.72
2023-03-12T17:14:53.299Z,100452.91
2023-03-12T17:17:53.288Z,100451.84
2023-03-12T17:20:53.267Z,100461.75
2023-03-12T17:23:53.241Z,100460.19
2023-03-12T17:26:53.325Z,100463.41
2023-03-12T17:29:53.292Z,100453.47
2023-03-12T17:32:53.397Z,100472.16
2023-03-12T17:35:53.322Z,100478.75
2023-03-12T17:38:53.277Z,100465.53
2023-03-12T17:41:53.290Z,100467.63
2023-03-12T17:44:53.287Z,100490.66
2023-03-12T17:47:53.290Z,100500.22
2023-03-12T17:50:53.265Z,100495.13
2023-03-12T17:53:46.278Z,100506.00
2023-03-12T17:56:32.288Z,100501.84
2023-03-12T17:59:33.334Z,100508.81
2023-03-12T18:02:33.306Z,100519.47
2023-03-12T18:05:33.338Z,100507.63
2023-03-12T18:08:33.229Z,100512.03
2023-03-12T18:11:33.322Z,100513.00
2023-03-12T18:14:33.308Z,100490.91
2023-03-12T18:17:33.275Z,100499.44
2023-03-12T18:20:39.262Z,100482.09
2023-03-12T18:23:39.245Z,100486.44
2023-03-12T18:26:39.275Z,100497.03
2023-03-12T18:29:42.285Z,100499.72
2023-03-12T18:32:42.337Z,100486.69
2023-03-12T18:35:42.329Z,100500.69
2023-03-12T18:38:42.289Z,100502.75
2023-03-12T18:41:42.319Z,100500.41
2023-03-12T18:44:42.256Z,100487.69
2023-03-12T18:47:46.293Z,100502.34
2023-03-12T18:50:46.281Z,100500.31
2023-03-12T18:53:46.279Z,100511.66
2023-03-12T18:56:47.301Z,100519.53
2023-03-12T18:59:51.270Z,100498.78
2023-03-12T19:02:51.315Z,100515.78
2023-03-12T19:05:51.268Z,100508.03
2023-03-12T19:08:51.273Z,100518.25
2023-03-12T19:11:51.264Z,100513.56
2023-03-12T19:14:51.254Z,100513.94
2023-03-12T19:17:51.257Z,100527.88
2023-03-12T19:20:51.257Z,100522.03
2023-03-12T19:23:51.267Z,100537.00
2023-03-12T19:26:51.297Z,100531.00
2023-03-12T19:29:51.309Z,100542.41
2023-03-12T19:32:51.313Z,100533.88
2023-03-12T19:35:52.287Z,100514.47
2023-03-12T19:38:52.247Z,100541.78
2023-03-12T19:41:52.254Z,100541.84
2023-03-12T19:44:52.290Z,100549.59
2023-03-12T19:47:52.261Z,100556.44
2023-03-12T19:50:52.294Z,100551.41
2023-03-12T19:53:52.246Z,100533.72
2023-03-12T19:56:52.298Z,100553.47
2023-03-12T19:59:52.251Z,100541.81
2023-03-12T20:02:52.411Z,100513.56
2023-03-12T20:05:52.284Z,100509.50
2023-03-12T20:08:52.313Z,100533.50
2023-03-12T20:11:52.281Z,100543.81
2023-03-12T20:14:52.216Z,100540.50
2023-03-12T20:17:52.231Z,100514.63
2023-03-12T20:20:52.228Z,100524.31
2023-03-12T20:23:52.262Z,100534.66
2023-03-12T20:26:52.249Z,100534.56
2023-03-12T20:29:52.232Z,100542.97
2023-03-12T20:32:52.341Z,100535.59
2023-03-12T20:35:52.359Z,100555.91
2023-03-12T20:38:52.277Z,100560.38
2023-03-12T20:41:52.285Z,100536.09
2023-03-12T20:44:52.293Z,100559.88
2023-03-12T20:47:52.286Z,100560.25
2023-03-12T20:50:52.265Z,100561.06
2023-03-12T20:53:52.264Z,100574.16
2023-03-12T20:56:52.254Z,100578.56
2023-03-12T20:59:52.252Z,100581.34
2023-03-12T21:02:52.360Z,100583.69
2023-03-12T21:05:52.237Z,100588.97
2023-03-12T21:08:52.243Z,100575.38
2023-03-12T21:11:52.301Z,100559.44
2023-03-12T21:14:52.244Z,100575.63
2023-03-12T21:17:53.254Z,100573.63
2023-03-12T21:20:54.262Z,100579.59
2023-03-12T21:23:54.304Z,100581.62
2023-03-12T21:26:54.293Z,100582.13
2023-03-12T21:29:54.268Z,100568.87
2023-03-12T21:32:54.260Z,100588.88
2023-03-12T21:36:00.323Z,100582.00
2023-03-12T21:39:00.281Z,100596.94
2023-03-12T21:42:00.253Z,100584.22
2023-03-12T21:45:00.221Z,100597.41
2023-03-12T21:48:00.271Z,100606.91
2023-03-12T21:50:53.322Z,100599.16
2023-03-12T21:53:53.252Z,100591.19
2023-03-12T21:56:53.282Z,100586.66
2023-03-12T21:59:53.251Z,100587.00
2023-03-12T22:02:58.248Z,100569.22
2023-03-12T22:06:04.288Z,100578.44
2023-03-12T22:09:04.284Z,100599.94
2023-03-12T22:12:04.239Z,100595.72
2023-03-12T22:15:04.255Z,100588.97
2023-03-12T22:18:04.262Z,100583.09
2023-03-12T22:21:08.262Z,100583.09
2023-03-12T22:24:08.229Z,100584.91
2023-03-12T22:27:10.244Z,100583.91
2023-03-12T22:30:10.225Z,100569.34
2023-03-12T22:33:10.235Z,100556.06
2023-03-12T22:36:10.319Z,100573.69
2023-03-12T22:39:11.241Z,100587.41
2023-03-12T22:42:11.234Z,100564.53
2023-03-12T22:45:11.276Z,100583.09
2023-03-12T22:48:11.237Z,100579.75
2023-03-12T22:51:12.235Z,100595.44
2023-03-12T22:54:12.295Z,100572.44
2023-03-12T22:57:12.224Z,100575.41
2023-03-12T23:00:13.243Z,100585.69
2023-03-12T23:03:13.301Z,100598.41
2023-03-12T23:06:14.274Z,100602.69
2023-03-12T23:09:14.230Z,100600.13
2023-03-12T23:12:14.260Z,100578.97
2023-03-12T23:15:14.227Z,100591.72
2023-03-12T23:18:14.288Z,100594.94
2023-03-12T23:21:16.273Z,100590.31
2023-03-12T23:24:16.248Z,100595.19
2023-03-12T23:27:16.225Z,100601.97
2023-03-12T23:30:16.230Z,100598.31
2023-03-12T23:33:16.218Z,100596.44
2023-03-12T23:36:23.273Z,100590.53
2023-03-12T23:39:23.241Z,100609.22
2023-03-12T23:42:23.225Z,100603.16
2023-03-12T23:45:24.263Z,100605.00
2023-03-12T23:48:24.226Z,100621.62
2023-03-12T23:51:36.233Z,100599.81
2023-03-12T23:54:36.233Z,100634.28
2023-03-12T23:57:36.297Z,100638.56
